sensor_id;sensor_type;location;lat;lon;timestamp;P1;durP1;ratioP1;P2;durP2;ratioP2
50585;SDS011;36542;51.700;8.846;2023-07-31T00:01:03;8.37;;;5.47;;
50585;SDS011;36542;51.700;8.846;2023-07-31T00:03:29;6.00;;;5.30;;
50585;SDS011;36542;51.700;8.846;2023-07-31T00:05:54;6.83;;;5.47;;
50585;SDS011;36542;51.700;8.846;2023-07-31T00:08:20;10.57;;;7.10;;
50585;SDS011;36542;51.700;8.846;2023-07-31T00:10:45;10.00;;;6.73;;
50585;SDS011;36542;51.700;8.846;2023-07-31T00:13:11;10.10;;;7.13;;
50585;SDS011;36542;51.700;8.846;2023-07-31T00:15:36;8.47;;;7.07;;
50585;SDS011;36542;51.700;8.846;2023-07-31T00:18:02;9.97;;;7.40;;
50585;SDS011;36542;51.700;8.846;2023-07-31T00:20:28;10.77;;;7.23;;
50585;SDS011;36542;51.700;8.846;2023-07-31T00:22:53;10.73;;;7.40;;
50585;SDS011;36542;51.700;8.846;2023-07-31T00:25:19;7.57;;;6.57;;
50585;SDS011;36542;51.700;8.846;2023-07-31T00:27:44;11.20;;;7.43;;
50585;SDS011;36542;51.700;8.846;2023-07-31T00:30:11;9.50;;;6.83;;
50585;SDS011;36542;51.700;8.846;2023-07-31T00:32:37;8.10;;;6.53;;
50585;SDS011;36542;51.700;8.846;2023-07-31T00:35:02;9.83;;;6.67;;
50585;SDS011;36542;51.700;8.846;2023-07-31T00:37:28;8.33;;;6.57;;
50585;SDS011;36542;51.700;8.846;2023-07-31T00:39:53;10.23;;;6.37;;
50585;SDS011;36542;51.700;8.846;2023-07-31T00:42:19;9.40;;;7.10;;
50585;SDS011;36542;51.700;8.846;2023-07-31T00:44:44;10.80;;;7.23;;
50585;SDS011;36542;51.700;8.846;2023-07-31T00:47:10;7.47;;;6.67;;
50585;SDS011;36542;51.700;8.846;2023-07-31T00:49:35;7.07;;;6.37;;
50585;SDS011;36542;51.700;8.846;2023-07-31T00:52:01;8.10;;;6.30;;
50585;SDS011;36542;51.700;8.846;2023-07-31T00:54:27;9.73;;;6.60;;
50585;SDS011;36542;51.700;8.846;2023-07-31T00:56:53;7.20;;;6.50;;
50585;SDS011;36542;51.700;8.846;2023-07-31T00:59:19;8.73;;;6.57;;
50585;SDS011;36542;51.700;8.846;2023-07-31T01:01:45;7.43;;;6.70;;
50585;SDS011;36542;51.700;8.846;2023-07-31T01:04:11;8.10;;;5.90;;
50585;SDS011;36542;51.700;8.846;2023-07-31T01:06:56;7.23;;;6.37;;
50585;SDS011;36542;51.700;8.846;2023-07-31T01:12:17;7.97;;;5.43;;
50585;SDS011;36542;51.700;8.846;2023-07-31T01:14:50;8.67;;;5.53;;
50585;SDS011;36542;51.700;8.846;2023-07-31T01:17:37;8.03;;;5.73;;
50585;SDS011;36542;51.700;8.846;2023-07-31T01:20:03;8.20;;;5.80;;
50585;SDS011;36542;51.700;8.846;2023-07-31T01:22:41;10.53;;;4.90;;
50585;SDS011;36542;51.700;8.846;2023-07-31T01:28:23;6.70;;;5.50;;
50585;SDS011;36542;51.700;8.846;2023-07-31T01:31:02;8.43;;;5.47;;
50585;SDS011;36542;51.700;8.846;2023-07-31T01:33:31;8.53;;;5.50;;
50585;SDS011;36542;51.700;8.846;2023-07-31T01:35:57;10.00;;;5.30;;
50585;SDS011;36542;51.700;8.846;2023-07-31T01:38:23;8.00;;;5.30;;
50585;SDS011;36542;51.700;8.846;2023-07-31T01:40:52;7.27;;;6.00;;
50585;SDS011;36542;51.700;8.846;2023-07-31T01:43:18;9.00;;;5.87;;
50585;SDS011;36542;51.700;8.846;2023-07-31T01:45:44;9.97;;;6.03;;
50585;SDS011;36542;51.700;8.846;2023-07-31T01:48:09;9.33;;;5.87;;
50585;SDS011;36542;51.700;8.846;2023-07-31T01:50:35;9.30;;;6.50;;
50585;SDS011;36542;51.700;8.846;2023-07-31T01:53:00;12.80;;;6.43;;
50585;SDS011;36542;51.700;8.846;2023-07-31T01:55:26;11.23;;;6.00;;
50585;SDS011;36542;51.700;8.846;2023-07-31T01:57:51;9.77;;;5.20;;
50585;SDS011;36542;51.700;8.846;2023-07-31T02:00:18;7.80;;;5.10;;
50585;SDS011;36542;51.700;8.846;2023-07-31T02:02:44;6.00;;;4.90;;
50585;SDS011;36542;51.700;8.846;2023-07-31T02:05:09;7.83;;;4.73;;
50585;SDS011;36542;51.700;8.846;2023-07-31T02:07:35;4.70;;;3.83;;
50585;SDS011;36542;51.700;8.846;2023-07-31T02:10:00;3.73;;;3.07;;
50585;SDS011;36542;51.700;8.846;2023-07-31T02:12:26;3.30;;;2.80;;
50585;SDS011;36542;51.700;8.846;2023-07-31T02:14:51;4.80;;;2.60;;
50585;SDS011;36542;51.700;8.846;2023-07-31T02:17:17;5.37;;;2.80;;
50585;SDS011;36542;51.700;8.846;2023-07-31T02:19:42;4.73;;;3.10;;
50585;SDS011;36542;51.700;8.846;2023-07-31T02:22:08;3.73;;;2.83;;
50585;SDS011;36542;51.700;8.846;2023-07-31T02:24:34;4.33;;;3.03;;
50585;SDS011;36542;51.700;8.846;2023-07-31T02:26:59;5.03;;;4.07;;
50585;SDS011;36542;51.700;8.846;2023-07-31T02:29:25;4.03;;;2.90;;
50585;SDS011;36542;51.700;8.846;2023-07-31T02:31:50;6.30;;;3.27;;
50585;SDS011;36542;51.700;8.846;2023-07-31T02:34:16;3.83;;;2.83;;
50585;SDS011;36542;51.700;8.846;2023-07-31T02:36:41;5.03;;;2.70;;
50585;SDS011;36542;51.700;8.846;2023-07-31T02:39:07;6.50;;;3.33;;
50585;SDS011;36542;51.700;8.846;2023-07-31T02:41:32;6.13;;;4.33;;
50585;SDS011;36542;51.700;8.846;2023-07-31T02:43:58;7.80;;;4.83;;
50585;SDS011;36542;51.700;8.846;2023-07-31T02:46:23;7.00;;;5.33;;
50585;SDS011;36542;51.700;8.846;2023-07-31T02:48:49;11.67;;;6.20;;
50585;SDS011;36542;51.700;8.846;2023-07-31T02:51:15;10.40;;;6.90;;
50585;SDS011;36542;51.700;8.846;2023-07-31T02:53:41;15.30;;;7.80;;
50585;SDS011;36542;51.700;8.846;2023-07-31T02:56:06;14.67;;;8.53;;
50585;SDS011;36542;51.700;8.846;2023-07-31T02:58:32;18.07;;;8.43;;
50585;SDS011;36542;51.700;8.846;2023-07-31T03:00:58;18.43;;;8.60;;
50585;SDS011;36542;51.700;8.846;2023-07-31T03:03:24;16.33;;;8.27;;
50585;SDS011;36542;51.700;8.846;2023-07-31T03:05:49;16.63;;;8.23;;
50585;SDS011;36542;51.700;8.846;2023-07-31T03:08:15;14.93;;;8.53;;
50585;SDS011;36542;51.700;8.846;2023-07-31T03:10:41;21.20;;;8.70;;
50585;SDS011;36542;51.700;8.846;2023-07-31T03:13:06;14.40;;;8.50;;
50585;SDS011;36542;51.700;8.846;2023-07-31T03:15:32;20.20;;;8.90;;
50585;SDS011;36542;51.700;8.846;2023-07-31T03:17:57;14.47;;;8.00;;
50585;SDS011;36542;51.700;8.846;2023-07-31T03:20:23;16.63;;;8.00;;
50585;SDS011;36542;51.700;8.846;2023-07-31T03:22:48;16.90;;;7.67;;
50585;SDS011;36542;51.700;8.846;2023-07-31T03:25:14;19.33;;;7.80;;
50585;SDS011;36542;51.700;8.846;2023-07-31T03:27:40;12.50;;;7.83;;
50585;SDS011;36542;51.700;8.846;2023-07-31T03:30:05;19.00;;;7.77;;
50585;SDS011;36542;51.700;8.846;2023-07-31T03:32:31;16.10;;;7.53;;
50585;SDS011;36542;51.700;8.846;2023-07-31T03:34:57;16.97;;;8.20;;
50585;SDS011;36542;51.700;8.846;2023-07-31T03:37:23;15.27;;;7.50;;
50585;SDS011;36542;51.700;8.846;2023-07-31T03:39:48;12.37;;;7.10;;
50585;SDS011;36542;51.700;8.846;2023-07-31T03:42:14;14.93;;;6.93;;
50585;SDS011;36542;51.700;8.846;2023-07-31T03:44:40;15.23;;;6.23;;
50585;SDS011;36542;51.700;8.846;2023-07-31T03:47:05;14.07;;;6.83;;
50585;SDS011;36542;51.700;8.846;2023-07-31T03:49:31;11.53;;;5.73;;
50585;SDS011;36542;51.700;8.846;2023-07-31T03:51:56;13.40;;;6.60;;
50585;SDS011;36542;51.700;8.846;2023-07-31T03:54:22;9.00;;;6.33;;
50585;SDS011;36542;51.700;8.846;2023-07-31T03:56:47;12.97;;;6.37;;
50585;SDS011;36542;51.700;8.846;2023-07-31T03:59:13;13.67;;;6.60;;
50585;SDS011;36542;51.700;8.846;2023-07-31T04:01:38;10.90;;;6.37;;
50585;SDS011;36542;51.700;8.846;2023-07-31T04:04:04;14.27;;;5.90;;
50585;SDS011;36542;51.700;8.846;2023-07-31T04:06:30;10.93;;;5.77;;
50585;SDS011;36542;51.700;8.846;2023-07-31T04:08:55;16.37;;;6.83;;
50585;SDS011;36542;51.700;8.846;2023-07-31T04:11:21;12.93;;;5.90;;
50585;SDS011;36542;51.700;8.846;2023-07-31T04:13:47;13.10;;;6.03;;
50585;SDS011;36542;51.700;8.846;2023-07-31T04:16:12;12.53;;;6.10;;
50585;SDS011;36542;51.700;8.846;2023-07-31T04:18:38;13.17;;;6.33;;
50585;SDS011;36542;51.700;8.846;2023-07-31T04:21:03;13.60;;;5.80;;
50585;SDS011;36542;51.700;8.846;2023-07-31T04:23:29;12.80;;;6.30;;
50585;SDS011;36542;51.700;8.846;2023-07-31T04:25:55;11.83;;;5.97;;
50585;SDS011;36542;51.700;8.846;2023-07-31T04:28:20;12.40;;;6.27;;
50585;SDS011;36542;51.700;8.846;2023-07-31T04:30:46;11.97;;;6.40;;
50585;SDS011;36542;51.700;8.846;2023-07-31T04:33:12;14.37;;;6.20;;
50585;SDS011;36542;51.700;8.846;2023-07-31T04:35:37;15.27;;;6.77;;
50585;SDS011;36542;51.700;8.846;2023-07-31T04:38:03;14.77;;;6.77;;
50585;SDS011;36542;51.700;8.846;2023-07-31T04:40:28;10.10;;;6.13;;
50585;SDS011;36542;51.700;8.846;2023-07-31T04:42:54;10.07;;;5.50;;
50585;SDS011;36542;51.700;8.846;2023-07-31T04:45:19;14.97;;;6.60;;
50585;SDS011;36542;51.700;8.846;2023-07-31T04:47:45;12.30;;;6.03;;
50585;SDS011;36542;51.700;8.846;2023-07-31T04:50:10;15.00;;;6.27;;
50585;SDS011;36542;51.700;8.846;2023-07-31T04:52:36;18.07;;;6.37;;
50585;SDS011;36542;51.700;8.846;2023-07-31T04:55:01;13.93;;;6.03;;
50585;SDS011;36542;51.700;8.846;2023-07-31T04:57:27;13.57;;;5.83;;
50585;SDS011;36542;51.700;8.846;2023-07-31T04:59:53;12.90;;;5.87;;
50585;SDS011;36542;51.700;8.846;2023-07-31T05:02:19;11.37;;;5.47;;
50585;SDS011;36542;51.700;8.846;2023-07-31T05:04:44;13.43;;;5.87;;
50585;SDS011;36542;51.700;8.846;2023-07-31T05:07:10;12.03;;;5.40;;
50585;SDS011;36542;51.700;8.846;2023-07-31T05:09:35;11.17;;;5.17;;
50585;SDS011;36542;51.700;8.846;2023-07-31T05:12:01;10.83;;;5.07;;
50585;SDS011;36542;51.700;8.846;2023-07-31T05:14:27;12.20;;;5.60;;
50585;SDS011;36542;51.700;8.846;2023-07-31T05:16:52;14.80;;;6.23;;
50585;SDS011;36542;51.700;8.846;2023-07-31T05:19:18;12.43;;;5.60;;
50585;SDS011;36542;51.700;8.846;2023-07-31T05:21:43;10.63;;;4.67;;
50585;SDS011;36542;51.700;8.846;2023-07-31T05:24:09;12.43;;;5.27;;
50585;SDS011;36542;51.700;8.846;2023-07-31T05:26:35;13.13;;;4.97;;
50585;SDS011;36542;51.700;8.846;2023-07-31T05:29:01;10.83;;;5.43;;
50585;SDS011;36542;51.700;8.846;2023-07-31T05:31:27;11.60;;;5.13;;
50585;SDS011;36542;51.700;8.846;2023-07-31T05:33:53;10.57;;;5.17;;
50585;SDS011;36542;51.700;8.846;2023-07-31T05:36:18;9.43;;;4.67;;
50585;SDS011;36542;51.700;8.846;2023-07-31T05:38:44;13.20;;;5.83;;
50585;SDS011;36542;51.700;8.846;2023-07-31T05:41:10;8.43;;;5.13;;
50585;SDS011;36542;51.700;8.846;2023-07-31T05:43:37;8.33;;;5.23;;
50585;SDS011;36542;51.700;8.846;2023-07-31T05:46:02;11.70;;;4.73;;
50585;SDS011;36542;51.700;8.846;2023-07-31T05:48:28;7.80;;;5.23;;
50585;SDS011;36542;51.700;8.846;2023-07-31T05:50:53;11.60;;;4.80;;
50585;SDS011;36542;51.700;8.846;2023-07-31T05:53:19;11.43;;;5.13;;
50585;SDS011;36542;51.700;8.846;2023-07-31T05:55:44;12.63;;;5.57;;
50585;SDS011;36542;51.700;8.846;2023-07-31T05:58:10;9.10;;;5.80;;
50585;SDS011;36542;51.700;8.846;2023-07-31T06:00:35;11.13;;;5.63;;
50585;SDS011;36542;51.700;8.846;2023-07-31T06:03:01;14.50;;;6.03;;
50585;SDS011;36542;51.700;8.846;2023-07-31T06:05:27;10.83;;;5.70;;
50585;SDS011;36542;51.700;8.846;2023-07-31T06:07:54;12.17;;;5.13;;
50585;SDS011;36542;51.700;8.846;2023-07-31T06:10:20;12.87;;;5.93;;
50585;SDS011;36542;51.700;8.846;2023-07-31T06:12:46;11.80;;;5.40;;
50585;SDS011;36542;51.700;8.846;2023-07-31T06:15:11;11.97;;;6.40;;
50585;SDS011;36542;51.700;8.846;2023-07-31T06:17:37;9.00;;;5.40;;
50585;SDS011;36542;51.700;8.846;2023-07-31T06:20:02;10.87;;;5.20;;
50585;SDS011;36542;51.700;8.846;2023-07-31T06:22:30;9.03;;;5.23;;
50585;SDS011;36542;51.700;8.846;2023-07-31T06:24:56;9.50;;;5.70;;
50585;SDS011;36542;51.700;8.846;2023-07-31T06:27:21;12.47;;;5.57;;
50585;SDS011;36542;51.700;8.846;2023-07-31T06:29:47;10.63;;;5.40;;
50585;SDS011;36542;51.700;8.846;2023-07-31T06:32:13;9.60;;;5.30;;
50585;SDS011;36542;51.700;8.846;2023-07-31T06:34:38;11.77;;;5.30;;
50585;SDS011;36542;51.700;8.846;2023-07-31T06:37:04;14.63;;;6.07;;
50585;SDS011;36542;51.700;8.846;2023-07-31T06:39:30;9.27;;;5.37;;
50585;SDS011;36542;51.700;8.846;2023-07-31T06:41:55;13.10;;;5.20;;
50585;SDS011;36542;51.700;8.846;2023-07-31T06:44:21;12.13;;;4.77;;
50585;SDS011;36542;51.700;8.846;2023-07-31T06:46:46;12.37;;;5.57;;
50585;SDS011;36542;51.700;8.846;2023-07-31T06:49:12;8.80;;;4.50;;
50585;SDS011;36542;51.700;8.846;2023-07-31T06:51:40;8.80;;;5.17;;
50585;SDS011;36542;51.700;8.846;2023-07-31T06:54:05;8.83;;;5.27;;
50585;SDS011;36542;51.700;8.846;2023-07-31T06:56:31;12.27;;;5.47;;
50585;SDS011;36542;51.700;8.846;2023-07-31T06:58:57;9.97;;;5.50;;
50585;SDS011;36542;51.700;8.846;2023-07-31T07:01:22;10.97;;;5.43;;
50585;SDS011;36542;51.700;8.846;2023-07-31T07:03:48;11.90;;;5.23;;
50585;SDS011;36542;51.700;8.846;2023-07-31T07:06:15;7.97;;;4.53;;
50585;SDS011;36542;51.700;8.846;2023-07-31T07:08:41;10.83;;;5.10;;
50585;SDS011;36542;51.700;8.846;2023-07-31T07:11:07;10.70;;;5.20;;
50585;SDS011;36542;51.700;8.846;2023-07-31T07:13:33;11.77;;;5.13;;
50585;SDS011;36542;51.700;8.846;2023-07-31T07:15:58;8.70;;;5.07;;
50585;SDS011;36542;51.700;8.846;2023-07-31T07:18:24;10.70;;;5.97;;
50585;SDS011;36542;51.700;8.846;2023-07-31T07:20:50;9.00;;;5.73;;
50585;SDS011;36542;51.700;8.846;2023-07-31T07:23:17;13.50;;;5.90;;
50585;SDS011;36542;51.700;8.846;2023-07-31T07:25:43;10.17;;;5.87;;
50585;SDS011;36542;51.700;8.846;2023-07-31T07:28:09;13.23;;;6.47;;
50585;SDS011;36542;51.700;8.846;2023-07-31T07:30:34;10.70;;;5.90;;
50585;SDS011;36542;51.700;8.846;2023-07-31T07:33:00;13.30;;;6.93;;
50585;SDS011;36542;51.700;8.846;2023-07-31T07:35:26;10.20;;;6.33;;
50585;SDS011;36542;51.700;8.846;2023-07-31T07:37:51;10.57;;;6.47;;
50585;SDS011;36542;51.700;8.846;2023-07-31T07:40:17;9.97;;;6.43;;
50585;SDS011;36542;51.700;8.846;2023-07-31T07:42:42;12.97;;;7.17;;
50585;SDS011;36542;51.700;8.846;2023-07-31T07:45:08;11.70;;;6.33;;
50585;SDS011;36542;51.700;8.846;2023-07-31T07:47:34;14.33;;;6.60;;
50585;SDS011;36542;51.700;8.846;2023-07-31T07:49:59;11.30;;;6.17;;
50585;SDS011;36542;51.700;8.846;2023-07-31T07:52:25;9.23;;;6.03;;
50585;SDS011;36542;51.700;8.846;2023-07-31T07:54:51;10.77;;;6.00;;
50585;SDS011;36542;51.700;8.846;2023-07-31T07:57:16;10.77;;;6.60;;
50585;SDS011;36542;51.700;8.846;2023-07-31T07:59:42;10.47;;;6.13;;
50585;SDS011;36542;51.700;8.846;2023-07-31T08:02:07;9.67;;;7.20;;
50585;SDS011;36542;51.700;8.846;2023-07-31T08:04:33;10.73;;;7.50;;
50585;SDS011;36542;51.700;8.846;2023-07-31T08:06:58;11.60;;;7.40;;
50585;SDS011;36542;51.700;8.846;2023-07-31T08:09:24;14.87;;;7.90;;
50585;SDS011;36542;51.700;8.846;2023-07-31T08:11:49;13.33;;;8.50;;
50585;SDS011;36542;51.700;8.846;2023-07-31T08:14:15;13.07;;;8.13;;
50585;SDS011;36542;51.700;8.846;2023-07-31T08:16:40;10.13;;;7.57;;
50585;SDS011;36542;51.700;8.846;2023-07-31T08:19:06;13.13;;;7.97;;
50585;SDS011;36542;51.700;8.846;2023-07-31T08:21:31;12.27;;;8.90;;
50585;SDS011;36542;51.700;8.846;2023-07-31T08:23:57;12.97;;;8.53;;
50585;SDS011;36542;51.700;8.846;2023-07-31T08:26:22;12.10;;;8.33;;
50585;SDS011;36542;51.700;8.846;2023-07-31T08:28:48;13.93;;;8.50;;
50585;SDS011;36542;51.700;8.846;2023-07-31T08:31:14;10.47;;;7.80;;
50585;SDS011;36542;51.700;8.846;2023-07-31T08:33:39;12.83;;;8.50;;
50585;SDS011;36542;51.700;8.846;2023-07-31T08:36:05;9.93;;;7.47;;
50585;SDS011;36542;51.700;8.846;2023-07-31T08:38:31;13.63;;;8.20;;
50585;SDS011;36542;51.700;8.846;2023-07-31T08:40:57;12.40;;;7.47;;
50585;SDS011;36542;51.700;8.846;2023-07-31T08:43:25;13.10;;;7.53;;
50585;SDS011;36542;51.700;8.846;2023-07-31T08:45:52;10.57;;;7.67;;
50585;SDS011;36542;51.700;8.846;2023-07-31T08:48:19;11.63;;;7.37;;
50585;SDS011;36542;51.700;8.846;2023-07-31T08:50:46;9.83;;;8.00;;
50585;SDS011;36542;51.700;8.846;2023-07-31T08:53:11;10.73;;;7.17;;
50585;SDS011;36542;51.700;8.846;2023-07-31T08:55:38;7.97;;;5.60;;
50585;SDS011;36542;51.700;8.846;2023-07-31T08:58:04;8.30;;;5.67;;
50585;SDS011;36542;51.700;8.846;2023-07-31T09:00:31;7.87;;;5.90;;
50585;SDS011;36542;51.700;8.846;2023-07-31T09:02:59;8.73;;;5.20;;
50585;SDS011;36542;51.700;8.846;2023-07-31T09:05:28;9.60;;;5.57;;
50585;SDS011;36542;51.700;8.846;2023-07-31T09:07:55;10.33;;;6.00;;
50585;SDS011;36542;51.700;8.846;2023-07-31T09:10:22;10.10;;;6.27;;
50585;SDS011;36542;51.700;8.846;2023-07-31T09:12:48;10.70;;;6.10;;
50585;SDS011;36542;51.700;8.846;2023-07-31T09:15:16;6.17;;;5.57;;
50585;SDS011;36542;51.700;8.846;2023-07-31T09:17:42;8.87;;;5.07;;
50585;SDS011;36542;51.700;8.846;2023-07-31T09:22:43;8.80;;;5.27;;
50585;SDS011;36542;51.700;8.846;2023-07-31T09:27:48;5.73;;;5.10;;
50585;SDS011;36542;51.700;8.846;2023-07-31T09:30:24;9.90;;;5.40;;
50585;SDS011;36542;51.700;8.846;2023-07-31T09:32:50;5.83;;;4.07;;
50585;SDS011;36542;51.700;8.846;2023-07-31T09:35:31;7.53;;;4.00;;
50585;SDS011;36542;51.700;8.846;2023-07-31T09:37:59;5.13;;;4.20;;
50585;SDS011;36542;51.700;8.846;2023-07-31T09:42:58;5.17;;;4.17;;
50585;SDS011;36542;51.700;8.846;2023-07-31T09:45:25;4.60;;;3.37;;
50585;SDS011;36542;51.700;8.846;2023-07-31T09:47:51;8.43;;;4.10;;
50585;SDS011;36542;51.700;8.846;2023-07-31T09:50:17;7.40;;;3.47;;
50585;SDS011;36542;51.700;8.846;2023-07-31T09:52:44;5.03;;;3.77;;
50585;SDS011;36542;51.700;8.846;2023-07-31T09:55:10;5.77;;;4.03;;
50585;SDS011;36542;51.700;8.846;2023-07-31T09:57:40;4.73;;;3.67;;
50585;SDS011;36542;51.700;8.846;2023-07-31T10:00:08;3.73;;;3.23;;
50585;SDS011;36542;51.700;8.846;2023-07-31T10:02:37;3.90;;;3.33;;
50585;SDS011;36542;51.700;8.846;2023-07-31T10:05:03;6.47;;;3.53;;
50585;SDS011;36542;51.700;8.846;2023-07-31T10:07:30;3.43;;;3.13;;
50585;SDS011;36542;51.700;8.846;2023-07-31T10:09:59;3.40;;;3.03;;
50585;SDS011;36542;51.700;8.846;2023-07-31T10:12:25;5.00;;;3.50;;
50585;SDS011;36542;51.700;8.846;2023-07-31T10:14:54;3.07;;;2.73;;
50585;SDS011;36542;51.700;8.846;2023-07-31T10:17:21;3.97;;;2.90;;
50585;SDS011;36542;51.700;8.846;2023-07-31T10:19:50;5.73;;;3.30;;
50585;SDS011;36542;51.700;8.846;2023-07-31T10:22:16;3.93;;;3.00;;
50585;SDS011;36542;51.700;8.846;2023-07-31T10:24:44;3.77;;;3.03;;
50585;SDS011;36542;51.700;8.846;2023-07-31T10:27:10;6.07;;;3.13;;
50585;SDS011;36542;51.700;8.846;2023-07-31T10:29:37;4.73;;;3.20;;
50585;SDS011;36542;51.700;8.846;2023-07-31T10:32:04;4.30;;;3.17;;
50585;SDS011;36542;51.700;8.846;2023-07-31T10:34:33;4.43;;;3.43;;
50585;SDS011;36542;51.700;8.846;2023-07-31T10:39:54;6.07;;;2.93;;
50585;SDS011;36542;51.700;8.846;2023-07-31T10:42:46;5.50;;;3.10;;
50585;SDS011;36542;51.700;8.846;2023-07-31T10:45:24;4.83;;;3.40;;
50585;SDS011;36542;51.700;8.846;2023-07-31T10:47:59;2.80;;;2.47;;
50585;SDS011;36542;51.700;8.846;2023-07-31T10:50:28;5.07;;;2.87;;
50585;SDS011;36542;51.700;8.846;2023-07-31T10:52:57;3.87;;;2.93;;
50585;SDS011;36542;51.700;8.846;2023-07-31T10:55:30;4.13;;;2.80;;
50585;SDS011;36542;51.700;8.846;2023-07-31T10:58:00;4.40;;;3.13;;
50585;SDS011;36542;51.700;8.846;2023-07-31T11:00:34;4.20;;;2.67;;
50585;SDS011;36542;51.700;8.846;2023-07-31T11:03:07;5.67;;;3.37;;
50585;SDS011;36542;51.700;8.846;2023-07-31T11:10:46;3.27;;;2.20;;
50585;SDS011;36542;51.700;8.846;2023-07-31T11:13:13;2.37;;;2.17;;
50585;SDS011;36542;51.700;8.846;2023-07-31T11:15:38;2.37;;;2.10;;
50585;SDS011;36542;51.700;8.846;2023-07-31T11:18:04;2.63;;;2.20;;
50585;SDS011;36542;51.700;8.846;2023-07-31T11:20:33;2.00;;;1.80;;
50585;SDS011;36542;51.700;8.846;2023-07-31T11:23:03;2.70;;;1.77;;
50585;SDS011;36542;51.700;8.846;2023-07-31T11:25:34;1.87;;;1.30;;
50585;SDS011;36542;51.700;8.846;2023-07-31T11:28:04;1.60;;;1.50;;
50585;SDS011;36542;51.700;8.846;2023-07-31T11:30:31;2.83;;;1.47;;
50585;SDS011;36542;51.700;8.846;2023-07-31T11:32:57;2.90;;;1.50;;
50585;SDS011;36542;51.700;8.846;2023-07-31T11:35:23;2.67;;;1.40;;
50585;SDS011;36542;51.700;8.846;2023-07-31T11:37:48;1.57;;;1.30;;
50585;SDS011;36542;51.700;8.846;2023-07-31T11:40:14;2.10;;;1.27;;
50585;SDS011;36542;51.700;8.846;2023-07-31T11:42:40;1.23;;;1.10;;
50585;SDS011;36542;51.700;8.846;2023-07-31T11:45:06;2.10;;;1.63;;
50585;SDS011;36542;51.700;8.846;2023-07-31T11:47:33;1.83;;;1.67;;
50585;SDS011;36542;51.700;8.846;2023-07-31T11:50:00;1.60;;;1.50;;
50585;SDS011;36542;51.700;8.846;2023-07-31T11:52:28;1.53;;;1.30;;
50585;SDS011;36542;51.700;8.846;2023-07-31T11:55:00;1.93;;;1.20;;
50585;SDS011;36542;51.700;8.846;2023-07-31T11:57:26;1.53;;;1.43;;
50585;SDS011;36542;51.700;8.846;2023-07-31T11:59:53;1.57;;;1.37;;
50585;SDS011;36542;51.700;8.846;2023-07-31T12:02:20;1.20;;;1.20;;
50585;SDS011;36542;51.700;8.846;2023-07-31T12:04:46;1.87;;;1.37;;
50585;SDS011;36542;51.700;8.846;2023-07-31T12:07:13;1.47;;;1.20;;
50585;SDS011;36542;51.700;8.846;2023-07-31T12:09:49;2.20;;;1.20;;
50585;SDS011;36542;51.700;8.846;2023-07-31T12:12:19;2.27;;;1.10;;
50585;SDS011;36542;51.700;8.846;2023-07-31T12:14:46;3.33;;;1.50;;
50585;SDS011;36542;51.700;8.846;2023-07-31T12:17:11;2.70;;;1.30;;
50585;SDS011;36542;51.700;8.846;2023-07-31T12:19:37;1.30;;;1.20;;
50585;SDS011;36542;51.700;8.846;2023-07-31T12:22:10;1.67;;;1.30;;
50585;SDS011;36542;51.700;8.846;2023-07-31T12:24:40;1.70;;;1.27;;
50585;SDS011;36542;51.700;8.846;2023-07-31T12:27:10;1.43;;;1.20;;
50585;SDS011;36542;51.700;8.846;2023-07-31T12:29:40;2.43;;;1.13;;
50585;SDS011;36542;51.700;8.846;2023-07-31T12:35:06;1.17;;;1.07;;
50585;SDS011;36542;51.700;8.846;2023-07-31T12:37:32;1.33;;;1.20;;
50585;SDS011;36542;51.700;8.846;2023-07-31T12:39:58;1.40;;;1.30;;
50585;SDS011;36542;51.700;8.846;2023-07-31T12:42:30;0.90;;;0.90;;
50585;SDS011;36542;51.700;8.846;2023-07-31T12:44:56;2.40;;;0.87;;
50585;SDS011;36542;51.700;8.846;2023-07-31T12:47:21;1.50;;;1.40;;
50585;SDS011;36542;51.700;8.846;2023-07-31T12:49:47;0.73;;;0.73;;
50585;SDS011;36542;51.700;8.846;2023-07-31T12:52:12;1.00;;;1.00;;
50585;SDS011;36542;51.700;8.846;2023-07-31T12:54:38;1.20;;;1.10;;
50585;SDS011;36542;51.700;8.846;2023-07-31T12:57:03;1.30;;;1.20;;
50585;SDS011;36542;51.700;8.846;2023-07-31T12:59:29;1.50;;;1.40;;
50585;SDS011;36542;51.700;8.846;2023-07-31T13:01:55;1.50;;;1.30;;
50585;SDS011;36542;51.700;8.846;2023-07-31T13:04:20;1.57;;;1.47;;
50585;SDS011;36542;51.700;8.846;2023-07-31T13:06:46;1.40;;;1.30;;
50585;SDS011;36542;51.700;8.846;2023-07-31T13:09:12;2.20;;;1.70;;
50585;SDS011;36542;51.700;8.846;2023-07-31T13:11:37;3.63;;;1.60;;
50585;SDS011;36542;51.700;8.846;2023-07-31T13:14:03;4.40;;;1.67;;
50585;SDS011;36542;51.700;8.846;2023-07-31T13:16:28;1.70;;;1.60;;
50585;SDS011;36542;51.700;8.846;2023-07-31T13:18:54;2.07;;;1.70;;
50585;SDS011;36542;51.700;8.846;2023-07-31T13:21:19;2.70;;;1.60;;
50585;SDS011;36542;51.700;8.846;2023-07-31T13:23:47;2.33;;;1.80;;
50585;SDS011;36542;51.700;8.846;2023-07-31T13:26:12;3.43;;;2.03;;
50585;SDS011;36542;51.700;8.846;2023-07-31T13:28:38;2.03;;;1.80;;
50585;SDS011;36542;51.700;8.846;2023-07-31T13:31:03;2.07;;;1.97;;
50585;SDS011;36542;51.700;8.846;2023-07-31T13:33:29;2.10;;;1.80;;
50585;SDS011;36542;51.700;8.846;2023-07-31T13:35:54;1.80;;;1.60;;
50585;SDS011;36542;51.700;8.846;2023-07-31T13:38:20;1.90;;;1.80;;
50585;SDS011;36542;51.700;8.846;2023-07-31T13:40:45;2.80;;;1.90;;
50585;SDS011;36542;51.700;8.846;2023-07-31T13:43:11;2.23;;;2.10;;
50585;SDS011;36542;51.700;8.846;2023-07-31T13:45:36;2.57;;;2.20;;
50585;SDS011;36542;51.700;8.846;2023-07-31T13:48:02;2.10;;;1.90;;
50585;SDS011;36542;51.700;8.846;2023-07-31T13:50:28;3.30;;;2.30;;
50585;SDS011;36542;51.700;8.846;2023-07-31T13:52:54;5.83;;;2.43;;
50585;SDS011;36542;51.700;8.846;2023-07-31T13:55:19;3.77;;;2.10;;
50585;SDS011;36542;51.700;8.846;2023-07-31T13:57:45;3.93;;;2.13;;
50585;SDS011;36542;51.700;8.846;2023-07-31T14:00:12;2.50;;;1.77;;
50585;SDS011;36542;51.700;8.846;2023-07-31T14:02:38;2.97;;;2.40;;
50585;SDS011;36542;51.700;8.846;2023-07-31T14:05:04;2.63;;;1.90;;
50585;SDS011;36542;51.700;8.846;2023-07-31T14:07:31;5.60;;;2.60;;
50585;SDS011;36542;51.700;8.846;2023-07-31T14:09:57;3.13;;;2.40;;
50585;SDS011;36542;51.700;8.846;2023-07-31T14:12:22;3.47;;;2.53;;
50585;SDS011;36542;51.700;8.846;2023-07-31T14:14:48;3.17;;;2.40;;
50585;SDS011;36542;51.700;8.846;2023-07-31T14:17:13;4.37;;;2.70;;
50585;SDS011;36542;51.700;8.846;2023-07-31T14:19:39;3.47;;;2.57;;
50585;SDS011;36542;51.700;8.846;2023-07-31T14:22:05;2.90;;;2.50;;
50585;SDS011;36542;51.700;8.846;2023-07-31T14:24:30;2.90;;;2.47;;
50585;SDS011;36542;51.700;8.846;2023-07-31T14:26:56;4.80;;;2.40;;
50585;SDS011;36542;51.700;8.846;2023-07-31T14:29:21;2.57;;;2.37;;
50585;SDS011;36542;51.700;8.846;2023-07-31T14:31:47;4.47;;;3.40;;
50585;SDS011;36542;51.700;8.846;2023-07-31T14:34:12;5.17;;;3.20;;
50585;SDS011;36542;51.700;8.846;2023-07-31T14:36:38;3.20;;;2.90;;
50585;SDS011;36542;51.700;8.846;2023-07-31T14:39:04;3.73;;;3.40;;
50585;SDS011;36542;51.700;8.846;2023-07-31T14:41:29;6.40;;;3.47;;
50585;SDS011;36542;51.700;8.846;2023-07-31T14:43:55;3.97;;;3.30;;
50585;SDS011;36542;51.700;8.846;2023-07-31T14:46:20;3.70;;;3.40;;
50585;SDS011;36542;51.700;8.846;2023-07-31T14:48:46;3.80;;;3.50;;
50585;SDS011;36542;51.700;8.846;2023-07-31T14:51:11;3.43;;;3.13;;
50585;SDS011;36542;51.700;8.846;2023-07-31T14:53:37;6.20;;;3.67;;
50585;SDS011;36542;51.700;8.846;2023-07-31T14:56:02;3.87;;;3.33;;
50585;SDS011;36542;51.700;8.846;2023-07-31T14:58:28;4.37;;;3.90;;
50585;SDS011;36542;51.700;8.846;2023-07-31T15:00:54;4.10;;;3.80;;
50585;SDS011;36542;51.700;8.846;2023-07-31T15:03:19;3.93;;;3.43;;